sensor_id;sensor_type;location;lat;lon;timestamp;P1;durP1;ratioP1;P2;durP2;ratioP2
25780;SDS011;13626;48.128;11.628;2023-06-22T00:00:05;8.50;;;4.22;;
25780;SDS011;13626;48.128;11.628;2023-06-22T00:02:37;6.47;;;4.00;;
25780;SDS011;13626;48.128;11.628;2023-06-22T00:05:04;7.93;;;3.85;;
25780;SDS011;13626;48.128;11.628;2023-06-22T00:07:32;10.20;;;3.90;;
25780;SDS011;13626;48.128;11.628;2023-06-22T00:09:59;9.98;;;3.95;;
25780;SDS011;13626;48.128;11.628;2023-06-22T00:12:26;9.07;;;4.00;;
25780;SDS011;13626;48.128;11.628;2023-06-22T00:14:53;6.32;;;4.00;;
25780;SDS011;13626;48.128;11.628;2023-06-22T00:17:20;8.23;;;4.15;;
25780;SDS011;13626;48.128;11.628;2023-06-22T00:19:48;7.72;;;4.13;;
25780;SDS011;13626;48.128;11.628;2023-06-22T00:22:19;7.80;;;4.05;;
25780;SDS011;13626;48.128;11.628;2023-06-22T00:24:55;9.68;;;3.83;;
25780;SDS011;13626;48.128;11.628;2023-06-22T00:27:23;6.50;;;3.70;;
25780;SDS011;13626;48.128;11.628;2023-06-22T00:29:50;10.52;;;4.15;;
25780;SDS011;13626;48.128;11.628;2023-06-22T00:32:18;6.60;;;3.83;;
25780;SDS011;13626;48.128;11.628;2023-06-22T00:34:45;7.03;;;3.95;;
25780;SDS011;13626;48.128;11.628;2023-06-22T00:37:12;8.43;;;4.10;;
25780;SDS011;13626;48.128;11.628;2023-06-22T00:39:39;9.23;;;4.55;;
25780;SDS011;13626;48.128;11.628;2023-06-22T00:42:06;7.90;;;3.88;;
25780;SDS011;13626;48.128;11.628;2023-06-22T00:44:34;8.80;;;4.40;;
25780;SDS011;13626;48.128;11.628;2023-06-22T00:47:02;6.03;;;4.00;;
25780;SDS011;13626;48.128;11.628;2023-06-22T00:49:29;10.00;;;4.20;;
25780;SDS011;13626;48.128;11.628;2023-06-22T00:51:57;6.47;;;4.05;;
25780;SDS011;13626;48.128;11.628;2023-06-22T00:54:24;7.22;;;3.67;;
25780;SDS011;13626;48.128;11.628;2023-06-22T00:56:53;7.15;;;3.90;;
25780;SDS011;13626;48.128;11.628;2023-06-22T00:59:24;9.68;;;4.10;;
25780;SDS011;13626;48.128;11.628;2023-06-22T01:01:52;7.50;;;4.05;;
25780;SDS011;13626;48.128;11.628;2023-06-22T01:04:21;7.10;;;4.07;;
25780;SDS011;13626;48.128;11.628;2023-06-22T01:06:54;10.30;;;4.63;;
25780;SDS011;13626;48.128;11.628;2023-06-22T01:09:22;6.68;;;3.80;;
25780;SDS011;13626;48.128;11.628;2023-06-22T01:11:54;8.27;;;3.60;;
25780;SDS011;13626;48.128;11.628;2023-06-22T01:14:24;7.72;;;4.25;;
25780;SDS011;13626;48.128;11.628;2023-06-22T01:16:53;10.15;;;4.25;;
25780;SDS011;13626;48.128;11.628;2023-06-22T01:22:08;7.13;;;3.70;;
25780;SDS011;13626;48.128;11.628;2023-06-22T01:27:32;7.28;;;3.58;;
25780;SDS011;13626;48.128;11.628;2023-06-22T01:30:02;7.80;;;3.95;;
25780;SDS011;13626;48.128;11.628;2023-06-22T01:32:32;6.43;;;4.03;;
25780;SDS011;13626;48.128;11.628;2023-06-22T01:35:00;9.15;;;3.67;;
25780;SDS011;13626;48.128;11.628;2023-06-22T01:37:28;9.25;;;3.70;;
25780;SDS011;13626;48.128;11.628;2023-06-22T01:39:58;8.05;;;4.18;;
25780;SDS011;13626;48.128;11.628;2023-06-22T01:42:26;7.72;;;3.80;;
25780;SDS011;13626;48.128;11.628;2023-06-22T01:44:53;9.77;;;4.07;;
25780;SDS011;13626;48.128;11.628;2023-06-22T01:47:21;5.43;;;3.90;;
25780;SDS011;13626;48.128;11.628;2023-06-22T01:49:49;6.95;;;4.00;;
25780;SDS011;13626;48.128;11.628;2023-06-22T01:52:18;8.07;;;3.88;;
25780;SDS011;13626;48.128;11.628;2023-06-22T01:54:47;8.98;;;3.92;;
25780;SDS011;13626;48.128;11.628;2023-06-22T01:57:14;6.68;;;3.67;;
25780;SDS011;13626;48.128;11.628;2023-06-22T01:59:45;6.82;;;4.20;;
25780;SDS011;13626;48.128;11.628;2023-06-22T02:02:15;4.85;;;4.00;;
25780;SDS011;13626;48.128;11.628;2023-06-22T02:07:12;7.22;;;4.32;;
25780;SDS011;13626;48.128;11.628;2023-06-22T02:09:40;6.43;;;3.90;;
25780;SDS011;13626;48.128;11.628;2023-06-22T02:12:11;8.20;;;4.28;;
25780;SDS011;13626;48.128;11.628;2023-06-22T02:14:39;6.43;;;3.90;;
25780;SDS011;13626;48.128;11.628;2023-06-22T02:17:08;9.15;;;4.45;;
25780;SDS011;13626;48.128;11.628;2023-06-22T02:19:36;10.90;;;4.35;;
25780;SDS011;13626;48.128;11.628;2023-06-22T02:22:03;6.43;;;4.13;;
25780;SDS011;13626;48.128;11.628;2023-06-22T02:24:31;10.23;;;4.30;;
25780;SDS011;13626;48.128;11.628;2023-06-22T02:26:59;6.60;;;3.95;;
25780;SDS011;13626;48.128;11.628;2023-06-22T02:29:27;11.30;;;4.03;;
25780;SDS011;13626;48.128;11.628;2023-06-22T02:31:55;6.50;;;3.75;;
25780;SDS011;13626;48.128;11.628;2023-06-22T02:34:23;9.38;;;4.50;;
25780;SDS011;13626;48.128;11.628;2023-06-22T02:36:50;8.68;;;4.75;;
25780;SDS011;13626;48.128;11.628;2023-06-22T02:39:22;9.52;;;4.72;;
25780;SDS011;13626;48.128;11.628;2023-06-22T02:41:50;9.65;;;4.40;;
25780;SDS011;13626;48.128;11.628;2023-06-22T02:44:17;9.40;;;4.22;;
25780;SDS011;13626;48.128;11.628;2023-06-22T02:46:45;8.90;;;4.57;;
25780;SDS011;13626;48.128;11.628;2023-06-22T02:49:12;13.02;;;4.50;;
25780;SDS011;13626;48.128;11.628;2023-06-22T02:51:42;8.85;;;4.35;;
25780;SDS011;13626;48.128;11.628;2023-06-22T02:54:09;7.50;;;4.53;;
25780;SDS011;13626;48.128;11.628;2023-06-22T02:56:36;9.50;;;4.38;;
25780;SDS011;13626;48.128;11.628;2023-06-22T02:59:04;7.82;;;4.47;;
25780;SDS011;13626;48.128;11.628;2023-06-22T03:01:31;8.80;;;4.22;;
25780;SDS011;13626;48.128;11.628;2023-06-22T03:04:04;6.72;;;4.60;;
25780;SDS011;13626;48.128;11.628;2023-06-22T03:06:31;9.35;;;4.55;;
25780;SDS011;13626;48.128;11.628;2023-06-22T03:08:59;8.38;;;4.40;;
25780;SDS011;13626;48.128;11.628;2023-06-22T03:11:27;7.45;;;4.60;;
25780;SDS011;13626;48.128;11.628;2023-06-22T03:13:54;8.27;;;4.75;;
25780;SDS011;13626;48.128;11.628;2023-06-22T03:16:21;14.70;;;5.28;;
25780;SDS011;13626;48.128;11.628;2023-06-22T03:18:48;10.48;;;5.45;;
25780;SDS011;13626;48.128;11.628;2023-06-22T03:21:16;9.52;;;4.75;;
25780;SDS011;13626;48.128;11.628;2023-06-22T03:23:43;13.13;;;5.20;;
25780;SDS011;13626;48.128;11.628;2023-06-22T03:26:10;12.95;;;5.97;;
25780;SDS011;13626;48.128;11.628;2023-06-22T03:28:38;8.75;;;5.57;;
25780;SDS011;13626;48.128;11.628;2023-06-22T03:31:06;11.30;;;5.40;;
25780;SDS011;13626;48.128;11.628;2023-06-22T03:33:33;8.23;;;5.13;;
25780;SDS011;13626;48.128;11.628;2023-06-22T03:36:00;8.18;;;5.35;;
25780;SDS011;13626;48.128;11.628;2023-06-22T03:38:28;7.15;;;4.90;;
25780;SDS011;13626;48.128;11.628;2023-06-22T03:40:55;15.23;;;6.15;;
25780;SDS011;13626;48.128;11.628;2023-06-22T03:43:22;14.90;;;5.95;;
25780;SDS011;13626;48.128;11.628;2023-06-22T03:45:49;11.30;;;5.60;;
25780;SDS011;13626;48.128;11.628;2023-06-22T03:48:17;12.38;;;5.70;;
25780;SDS011;13626;48.128;11.628;2023-06-22T03:50:44;15.77;;;6.55;;
25780;SDS011;13626;48.128;11.628;2023-06-22T03:53:11;10.98;;;5.35;;
25780;SDS011;13626;48.128;11.628;2023-06-22T03:55:42;11.63;;;5.97;;
25780;SDS011;13626;48.128;11.628;2023-06-22T03:58:15;12.23;;;6.28;;
25780;SDS011;13626;48.128;11.628;2023-06-22T04:00:42;10.07;;;5.25;;
25780;SDS011;13626;48.128;11.628;2023-06-22T04:03:09;12.23;;;6.60;;
25780;SDS011;13626;48.128;11.628;2023-06-22T04:05:38;9.18;;;5.13;;
25780;SDS011;13626;48.128;11.628;2023-06-22T04:08:06;15.60;;;5.50;;
25780;SDS011;13626;48.128;11.628;2023-06-22T04:10:33;8.88;;;4.95;;
25780;SDS011;13626;48.128;11.628;2023-06-22T04:13:00;11.20;;;5.15;;
25780;SDS011;13626;48.128;11.628;2023-06-22T04:15:28;10.40;;;4.55;;
25780;SDS011;13626;48.128;11.628;2023-06-22T04:17:55;9.90;;;5.38;;
25780;SDS011;13626;48.128;11.628;2023-06-22T04:20:23;10.52;;;6.20;;
25780;SDS011;13626;48.128;11.628;2023-06-22T04:22:55;7.10;;;4.50;;
25780;SDS011;13626;48.128;11.628;2023-06-22T04:25:22;12.40;;;5.53;;
25780;SDS011;13626;48.128;11.628;2023-06-22T04:27:49;7.25;;;4.65;;
25780;SDS011;13626;48.128;11.628;2023-06-22T04:30:17;8.73;;;5.32;;
25780;SDS011;13626;48.128;11.628;2023-06-22T04:32:44;12.02;;;5.43;;
25780;SDS011;13626;48.128;11.628;2023-06-22T04:35:24;8.00;;;5.55;;
25780;SDS011;13626;48.128;11.628;2023-06-22T04:37:52;9.35;;;5.43;;
25780;SDS011;13626;48.128;11.628;2023-06-22T04:40:23;10.55;;;5.40;;
25780;SDS011;13626;48.128;11.628;2023-06-22T04:42:51;8.50;;;5.35;;
25780;SDS011;13626;48.128;11.628;2023-06-22T04:45:21;12.65;;;5.35;;
25780;SDS011;13626;48.128;11.628;2023-06-22T04:47:49;9.18;;;5.70;;
25780;SDS011;13626;48.128;11.628;2023-06-22T04:50:16;11.15;;;5.50;;
25780;SDS011;13626;48.128;11.628;2023-06-22T04:52:44;12.10;;;5.90;;
25780;SDS011;13626;48.128;11.628;2023-06-22T04:55:11;8.45;;;5.93;;
25780;SDS011;13626;48.128;11.628;2023-06-22T04:57:40;10.45;;;5.55;;
25780;SDS011;13626;48.128;11.628;2023-06-22T05:00:23;10.98;;;6.15;;
25780;SDS011;13626;48.128;11.628;2023-06-22T05:02:50;12.80;;;6.25;;
25780;SDS011;13626;48.128;11.628;2023-06-22T05:05:26;11.65;;;5.72;;
25780;SDS011;13626;48.128;11.628;2023-06-22T05:07:53;13.38;;;6.45;;
25780;SDS011;13626;48.128;11.628;2023-06-22T05:10:26;10.48;;;6.28;;
25780;SDS011;13626;48.128;11.628;2023-06-22T05:12:53;11.05;;;6.70;;
25780;SDS011;13626;48.128;11.628;2023-06-22T05:15:21;11.57;;;6.60;;
25780;SDS011;13626;48.128;11.628;2023-06-22T05:17:52;12.88;;;7.20;;
25780;SDS011;13626;48.128;11.628;2023-06-22T05:20:20;11.65;;;6.97;;
25780;SDS011;13626;48.128;11.628;2023-06-22T05:22:48;14.65;;;6.97;;
25780;SDS011;13626;48.128;11.628;2023-06-22T05:25:15;14.13;;;6.85;;
25780;SDS011;13626;48.128;11.628;2023-06-22T05:27:42;10.75;;;6.50;;
25780;SDS011;13626;48.128;11.628;2023-06-22T05:30:10;13.50;;;6.78;;
25780;SDS011;13626;48.128;11.628;2023-06-22T05:32:37;12.50;;;6.03;;
25780;SDS011;13626;48.128;11.628;2023-06-22T05:35:05;12.73;;;6.57;;
25780;SDS011;13626;48.128;11.628;2023-06-22T05:37:33;11.63;;;7.18;;
25780;SDS011;13626;48.128;11.628;2023-06-22T05:40:00;18.40;;;7.25;;
25780;SDS011;13626;48.128;11.628;2023-06-22T05:42:28;11.60;;;6.65;;
25780;SDS011;13626;48.128;11.628;2023-06-22T05:44:56;11.02;;;7.15;;
25780;SDS011;13626;48.128;11.628;2023-06-22T05:47:25;12.55;;;7.32;;
25780;SDS011;13626;48.128;11.628;2023-06-22T05:49:52;10.80;;;6.47;;
25780;SDS011;13626;48.128;11.628;2023-06-22T05:52:19;16.45;;;7.28;;
25780;SDS011;13626;48.128;11.628;2023-06-22T05:54:46;13.88;;;7.53;;
25780;SDS011;13626;48.128;11.628;2023-06-22T05:57:13;11.38;;;6.85;;
25780;SDS011;13626;48.128;11.628;2023-06-22T05:59:41;17.98;;;7.47;;
25780;SDS011;13626;48.128;11.628;2023-06-22T06:02:08;11.23;;;7.63;;
25780;SDS011;13626;48.128;11.628;2023-06-22T06:04:36;15.05;;;7.47;;
25780;SDS011;13626;48.128;11.628;2023-06-22T06:07:03;13.43;;;7.00;;
25780;SDS011;13626;48.128;11.628;2023-06-22T06:09:30;14.75;;;6.95;;
25780;SDS011;13626;48.128;11.628;2023-06-22T06:11:58;16.83;;;8.02;;
25780;SDS011;13626;48.128;11.628;2023-06-22T06:14:25;12.05;;;6.25;;
25780;SDS011;13626;48.128;11.628;2023-06-22T06:16:52;14.75;;;7.30;;
25780;SDS011;13626;48.128;11.628;2023-06-22T06:19:19;14.50;;;7.18;;
25780;SDS011;13626;48.128;11.628;2023-06-22T06:21:47;13.23;;;7.32;;
25780;SDS011;13626;48.128;11.628;2023-06-22T06:24:14;12.38;;;7.30;;
25780;SDS011;13626;48.128;11.628;2023-06-22T06:26:41;14.15;;;7.20;;
25780;SDS011;13626;48.128;11.628;2023-06-22T06:29:09;13.93;;;7.30;;
25780;SDS011;13626;48.128;11.628;2023-06-22T06:31:36;11.48;;;6.68;;
25780;SDS011;13626;48.128;11.628;2023-06-22T06:34:04;14.27;;;7.20;;
25780;SDS011;13626;48.128;11.628;2023-06-22T06:36:31;12.70;;;7.13;;
25780;SDS011;13626;48.128;11.628;2023-06-22T06:38:58;10.40;;;6.60;;
25780;SDS011;13626;48.128;11.628;2023-06-22T06:41:26;13.13;;;6.65;;
25780;SDS011;13626;48.128;11.628;2023-06-22T06:43:53;14.63;;;6.88;;
25780;SDS011;13626;48.128;11.628;2023-06-22T06:46:20;11.93;;;6.55;;
25780;SDS011;13626;48.128;11.628;2023-06-22T06:48:47;10.75;;;6.57;;
25780;SDS011;13626;48.128;11.628;2023-06-22T06:51:14;10.70;;;6.22;;
25780;SDS011;13626;48.128;11.628;2023-06-22T06:53:42;11.23;;;7.18;;
25780;SDS011;13626;48.128;11.628;2023-06-22T06:56:09;13.60;;;7.25;;
25780;SDS011;13626;48.128;11.628;2023-06-22T07:01:06;13.93;;;6.45;;
25780;SDS011;13626;48.128;11.628;2023-06-22T07:03:34;13.38;;;7.15;;
25780;SDS011;13626;48.128;11.628;2023-06-22T07:06:01;11.18;;;7.22;;
25780;SDS011;13626;48.128;11.628;2023-06-22T07:08:28;13.48;;;6.47;;
25780;SDS011;13626;48.128;11.628;2023-06-22T07:10:55;12.73;;;6.75;;
25780;SDS011;13626;48.128;11.628;2023-06-22T07:13:23;10.50;;;6.47;;
25780;SDS011;13626;48.128;11.628;2023-06-22T07:15:50;10.77;;;6.32;;
25780;SDS011;13626;48.128;11.628;2023-06-22T07:18:17;10.80;;;6.53;;
25780;SDS011;13626;48.128;11.628;2023-06-22T07:20:45;10.32;;;6.25;;
25780;SDS011;13626;48.128;11.628;2023-06-22T07:23:12;12.48;;;6.70;;
25780;SDS011;13626;48.128;11.628;2023-06-22T07:25:39;11.18;;;5.95;;
25780;SDS011;13626;48.128;11.628;2023-06-22T07:28:07;9.57;;;6.60;;
25780;SDS011;13626;48.128;11.628;2023-06-22T07:30:34;13.55;;;6.47;;
25780;SDS011;13626;48.128;11.628;2023-06-22T07:33:02;11.38;;;5.78;;
25780;SDS011;13626;48.128;11.628;2023-06-22T07:35:30;14.10;;;6.18;;
25780;SDS011;13626;48.128;11.628;2023-06-22T07:37:58;13.93;;;6.30;;
25780;SDS011;13626;48.128;11.628;2023-06-22T07:40:30;14.68;;;6.07;;
25780;SDS011;13626;48.128;11.628;2023-06-22T07:42:58;8.90;;;6.20;;
25780;SDS011;13626;48.128;11.628;2023-06-22T07:45:25;9.38;;;6.35;;
25780;SDS011;13626;48.128;11.628;2023-06-22T07:47:52;13.07;;;6.43;;
25780;SDS011;13626;48.128;11.628;2023-06-22T07:50:20;11.98;;;6.20;;
25780;SDS011;13626;48.128;11.628;2023-06-22T07:52:47;9.90;;;5.93;;
25780;SDS011;13626;48.128;11.628;2023-06-22T07:55:14;9.15;;;5.93;;
25780;SDS011;13626;48.128;11.628;2023-06-22T07:57:41;8.35;;;6.00;;
25780;SDS011;13626;48.128;11.628;2023-06-22T08:00:09;10.65;;;6.03;;
25780;SDS011;13626;48.128;11.628;2023-06-22T08:02:41;15.10;;;6.63;;
25780;SDS011;13626;48.128;11.628;2023-06-22T08:05:09;14.77;;;6.43;;
25780;SDS011;13626;48.128;11.628;2023-06-22T08:07:40;12.30;;;6.05;;
25780;SDS011;13626;48.128;11.628;2023-06-22T08:10:13;8.55;;;6.13;;
25780;SDS011;13626;48.128;11.628;2023-06-22T08:12:40;8.63;;;5.60;;
25780;SDS011;13626;48.128;11.628;2023-06-22T08:15:08;13.65;;;6.22;;
25780;SDS011;13626;48.128;11.628;2023-06-22T08:17:36;13.45;;;6.82;;
25780;SDS011;13626;48.128;11.628;2023-06-22T08:20:04;11.65;;;5.82;;
25780;SDS011;13626;48.128;11.628;2023-06-22T08:22:42;16.15;;;5.93;;
25780;SDS011;13626;48.128;11.628;2023-06-22T08:25:10;11.75;;;6.50;;
25780;SDS011;13626;48.128;11.628;2023-06-22T08:27:37;9.82;;;5.68;;
25780;SDS011;13626;48.128;11.628;2023-06-22T08:30:06;11.70;;;6.13;;
25780;SDS011;13626;48.128;11.628;2023-06-22T08:32:36;12.27;;;6.40;;
25780;SDS011;13626;48.128;11.628;2023-06-22T08:35:04;12.73;;;5.90;;
25780;SDS011;13626;48.128;11.628;2023-06-22T08:37:32;12.65;;;5.70;;
25780;SDS011;13626;48.128;11.628;2023-06-22T08:40:03;12.48;;;5.68;;
25780;SDS011;13626;48.128;11.628;2023-06-22T08:42:35;14.98;;;5.95;;
25780;SDS011;13626;48.128;11.628;2023-06-22T08:45:03;12.23;;;6.35;;
25780;SDS011;13626;48.128;11.628;2023-06-22T08:47:30;10.90;;;6.18;;
25780;SDS011;13626;48.128;11.628;2023-06-22T08:49:58;10.55;;;6.00;;
25780;SDS011;13626;48.128;11.628;2023-06-22T08:52:25;14.68;;;7.82;;
25780;SDS011;13626;48.128;11.628;2023-06-22T08:54:52;14.35;;;6.93;;
25780;SDS011;13626;48.128;11.628;2023-06-22T08:57:20;14.32;;;6.38;;
25780;SDS011;13626;48.128;11.628;2023-06-22T08:59:48;13.70;;;6.75;;
25780;SDS011;13626;48.128;11.628;2023-06-22T09:02:15;9.95;;;6.07;;
25780;SDS011;13626;48.128;11.628;2023-06-22T09:04:43;24.27;;;7.00;;
25780;SDS011;13626;48.128;11.628;2023-06-22T09:07:10;12.57;;;6.70;;
25780;SDS011;13626;48.128;11.628;2023-06-22T09:09:38;15.57;;;6.93;;
25780;SDS011;13626;48.128;11.628;2023-06-22T09:12:05;15.70;;;5.97;;
25780;SDS011;13626;48.128;11.628;2023-06-22T09:14:32;15.40;;;7.45;;
25780;SDS011;13626;48.128;11.628;2023-06-22T09:17:00;13.50;;;6.80;;
25780;SDS011;13626;48.128;11.628;2023-06-22T09:19:27;13.68;;;6.53;;
25780;SDS011;13626;48.128;11.628;2023-06-22T09:21:55;17.65;;;6.80;;
25780;SDS011;13626;48.128;11.628;2023-06-22T09:24:22;9.80;;;7.18;;
25780;SDS011;13626;48.128;11.628;2023-06-22T09:26:49;14.60;;;7.43;;
25780;SDS011;13626;48.128;11.628;2023-06-22T09:29:16;17.52;;;7.82;;
25780;SDS011;13626;48.128;11.628;2023-06-22T09:31:44;18.75;;;7.57;;
25780;SDS011;13626;48.128;11.628;2023-06-22T09:34:11;19.60;;;6.72;;
25780;SDS011;13626;48.128;11.628;2023-06-22T09:36:38;23.00;;;7.30;;
25780;SDS011;13626;48.128;11.628;2023-06-22T09:39:08;15.13;;;6.72;;
25780;SDS011;13626;48.128;11.628;2023-06-22T09:41:35;15.45;;;7.05;;
25780;SDS011;13626;48.128;11.628;2023-06-22T09:44:02;12.35;;;7.32;;
25780;SDS011;13626;48.128;11.628;2023-06-22T09:46:30;14.00;;;7.03;;
25780;SDS011;13626;48.128;11.628;2023-06-22T09:48:57;17.02;;;6.93;;
25780;SDS011;13626;48.128;11.628;2023-06-22T09:51:24;13.07;;;6.70;;
25780;SDS011;13626;48.128;11.628;2023-06-22T09:53:52;12.30;;;7.03;;
25780;SDS011;13626;48.128;11.628;2023-06-22T09:56:22;15.27;;;7.10;;
25780;SDS011;13626;48.128;11.628;2023-06-22T09:58:51;10.90;;;6.70;;
25780;SDS011;13626;48.128;11.628;2023-06-22T10:01:21;15.57;;;7.15;;
25780;SDS011;13626;48.128;11.628;2023-06-22T10:03:49;13.95;;;7.13;;
25780;SDS011;13626;48.128;11.628;2023-06-22T10:06:16;12.80;;;6.78;;
25780;SDS011;13626;48.128;11.628;2023-06-22T10:08:44;17.75;;;7.25;;
25780;SDS011;13626;48.128;11.628;2023-06-22T10:11:11;12.23;;;6.78;;
25780;SDS011;13626;48.128;11.628;2023-06-22T10:13:38;12.93;;;7.20;;
25780;SDS011;13626;48.128;11.628;2023-06-22T10:16:06;14.18;;;6.68;;
25780;SDS011;13626;48.128;11.628;2023-06-22T10:18:33;19.02;;;7.63;;
25780;SDS011;13626;48.128;11.628;2023-06-22T10:21:00;14.77;;;7.38;;
25780;SDS011;13626;48.128;11.628;2023-06-22T10:23:27;13.20;;;6.90;;
25780;SDS011;13626;48.128;11.628;2023-06-22T10:25:55;14.82;;;6.35;;
25780;SDS011;13626;48.128;11.628;2023-06-22T10:28:24;15.30;;;7.15;;
25780;SDS011;13626;48.128;11.628;2023-06-22T10:30:51;14.70;;;7.05;;
25780;SDS011;13626;48.128;11.628;2023-06-22T10:33:19;18.23;;;7.45;;
25780;SDS011;13626;48.128;11.628;2023-06-22T10:35:46;13.98;;;7.00;;
25780;SDS011;13626;48.128;11.628;2023-06-22T10:38:14;13.65;;;6.63;;
25780;SDS011;13626;48.128;11.628;2023-06-22T10:40:42;16.88;;;7.55;;
25780;SDS011;13626;48.128;11.628;2023-06-22T10:43:09;14.60;;;6.97;;
25780;SDS011;13626;48.128;11.628;2023-06-22T10:45:38;12.23;;;6.68;;
25780;SDS011;13626;48.128;11.628;2023-06-22T10:48:06;14.10;;;7.25;;
25780;SDS011;13626;48.128;11.628;2023-06-22T10:50:33;16.95;;;6.75;;
25780;SDS011;13626;48.128;11.628;2023-06-22T10:53:01;16.85;;;7.32;;
25780;SDS011;13626;48.128;11.628;2023-06-22T10:55:28;17.17;;;7.20;;
25780;SDS011;13626;48.128;11.628;2023-06-22T10:58:12;16.35;;;7.15;;
25780;SDS011;13626;48.128;11.628;2023-06-22T11:00:39;14.05;;;6.75;;
25780;SDS011;13626;48.128;11.628;2023-06-22T11:03:06;10.65;;;6.47;;
25780;SDS011;13626;48.128;11.628;2023-06-22T11:05:37;15.18;;;6.30;;
25780;SDS011;13626;48.128;11.628;2023-06-22T11:08:05;14.52;;;6.75;;
25780;SDS011;13626;48.128;11.628;2023-06-22T11:10:32;18.17;;;7.07;;
25780;SDS011;13626;48.128;11.628;2023-06-22T11:12:59;19.17;;;7.32;;
25780;SDS011;13626;48.128;11.628;2023-06-22T11:15:29;11.57;;;6.78;;
25780;SDS011;13626;48.128;11.628;2023-06-22T11:17:56;12.70;;;7.10;;
25780;SDS011;13626;48.128;11.628;2023-06-22T11:20:23;17.30;;;6.90;;
25780;SDS011;13626;48.128;11.628;2023-06-22T11:22:51;16.15;;;7.25;;
25780;SDS011;13626;48.128;11.628;2023-06-22T11:25:18;18.20;;;7.75;;
25780;SDS011;13626;48.128;11.628;2023-06-22T11:27:45;15.07;;;7.05;;
25780;SDS011;13626;48.128;11.628;2023-06-22T11:30:13;15.48;;;7.10;;
25780;SDS011;13626;48.128;11.628;2023-06-22T11:32:40;11.77;;;6.60;;
25780;SDS011;13626;48.128;11.628;2023-06-22T11:35:08;14.73;;;7.45;;
25780;SDS011;13626;48.128;11.628;2023-06-22T11:37:35;15.98;;;6.97;;
25780;SDS011;13626;48.128;11.628;2023-06-22T11:40:03;12.88;;;6.97;;
25780;SDS011;13626;48.128;11.628;2023-06-22T11:42:33;14.75;;;7.22;;
25780;SDS011;13626;48.128;11.628;2023-06-22T11:45:00;16.27;;;7.38;;
25780;SDS011;13626;48.128;11.628;2023-06-22T11:47:28;14.70;;;6.78;;
25780;SDS011;13626;48.128;11.628;2023-06-22T11:49:56;15.88;;;7.03;;
25780;SDS011;13626;48.128;11.628;2023-06-22T11:52:23;15.85;;;7.50;;
25780;SDS011;13626;48.128;11.628;2023-06-22T11:54:50;12.25;;;7.47;;
25780;SDS011;13626;48.128;11.628;2023-06-22T11:57:18;22.85;;;7.60;;
25780;SDS011;13626;48.128;11.628;2023-06-22T11:59:45;14.35;;;7.35;;
25780;SDS011;13626;48.128;11.628;2023-06-22T12:02:13;17.77;;;7.57;;
25780;SDS011;13626;48.128;11.628;2023-06-22T12:04:43;12.55;;;6.95;;
25780;SDS011;13626;48.128;11.628;2023-06-22T12:07:10;14.18;;;7.20;;
25780;SDS011;13626;48.128;11.628;2023-06-22T12:09:37;15.10;;;7.38;;
25780;SDS011;13626;48.128;11.628;2023-06-22T12:12:05;17.65;;;7.68;;
25780;SDS011;13626;48.128;11.628;2023-06-22T12:14:32;19.60;;;7.65;;
25780;SDS011;13626;48.128;11.628;2023-06-22T12:16:59;19.05;;;7.43;;
25780;SDS011;13626;48.128;11.628;2023-06-22T12:19:27;14.55;;;7.45;;
25780;SDS011;13626;48.128;11.628;2023-06-22T12:24:49;16.92;;;7.75;;
25780;SDS011;13626;48.128;11.628;2023-06-22T12:27:16;12.45;;;7.00;;
25780;SDS011;13626;48.128;11.628;2023-06-22T12:29:47;13.82;;;7.22;;
25780;SDS011;13626;48.128;11.628;2023-06-22T12:32:14;18.90;;;7.78;;
25780;SDS011;13626;48.128;11.628;2023-06-22T12:34:42;15.75;;;7.25;;
25780;SDS011;13626;48.128;11.628;2023-06-22T12:37:09;15.57;;;7.30;;
25780;SDS011;13626;48.128;11.628;2023-06-22T12:39:36;15.38;;;7.57;;
25780;SDS011;13626;48.128;11.628;2023-06-22T12:42:03;14.90;;;7.65;;
25780;SDS011;13626;48.128;11.628;2023-06-22T12:44:31;16.30;;;7.82;;
25780;SDS011;13626;48.128;11.628;2023-06-22T12:46:58;13.82;;;7.40;;
25780;SDS011;13626;48.128;11.628;2023-06-22T12:49:26;21.58;;;8.02;;
25780;SDS011;13626;48.128;11.628;2023-06-22T12:51:53;16.90;;;7.28;;
25780;SDS011;13626;48.128;11.628;2023-06-22T12:54:20;17.38;;;6.82;;
25780;SDS011;13626;48.128;11.628;2023-06-22T12:56:47;17.42;;;6.75;;
25780;SDS011;13626;48.128;11.628;2023-06-22T12:59:15;15.38;;;6.80;;
25780;SDS011;13626;48.128;11.628;2023-06-22T13:01:45;18.38;;;7.28;;
25780;SDS011;13626;48.128;11.628;2023-06-22T13:04:14;16.58;;;7.28;;
25780;SDS011;13626;48.128;11.628;2023-06-22T13:06:41;15.10;;;7.05;;
25780;SDS011;13626;48.128;11.628;2023-06-22T13:09:09;15.70;;;7.50;;
25780;SDS011;13626;48.128;11.628;2023-06-22T13:11:46;14.50;;;6.70;;
25780;SDS011;13626;48.128;11.628;2023-06-22T13:14:13;16.73;;;6.35;;
25780;SDS011;13626;48.128;11.628;2023-06-22T13:16:42;16.65;;;6.55;;
25780;SDS011;13626;48.128;11.628;2023-06-22T13:19:09;14.63;;;6.75;;
25780;SDS011;13626;48.128;11.628;2023-06-22T13:21:36;11.45;;;6.20;;
25780;SDS011;13626;48.128;11.628;2023-06-22T13:24:04;16.50;;;6.38;;
25780;SDS011;13626;48.128;11.628;2023-06-22T13:26:32;15.25;;;6.75;;
25780;SDS011;13626;48.128;11.628;2023-06-22T13:29:00;18.33;;;7.35;;
25780;SDS011;13626;48.128;11.628;2023-06-22T13:31:27;15.15;;;6.75;;
25780;SDS011;13626;48.128;11.628;2023-06-22T13:33:54;14.43;;;6.35;;
25780;SDS011;13626;48.128;11.628;2023-06-22T13:36:21;17.17;;;6.50;;
25780;SDS011;13626;48.128;11.628;2023-06-22T13:38:49;14.85;;;6.43;;
25780;SDS011;13626;48.128;11.628;2023-06-22T13:41:16;16.02;;;6.45;;
25780;SDS011;13626;48.128;11.628;2023-06-22T13:43:43;15.45;;;6.90;;
25780;SDS011;13626;48.128;11.628;2023-06-22T13:46:11;12.30;;;5.85;;
25780;SDS011;13626;48.128;11.628;2023-06-22T13:48:38;10.95;;;5.88;;
25780;SDS011;13626;48.128;11.628;2023-06-22T13:51:05;16.33;;;6.20;;
25780;SDS011;13626;48.128;11.628;2023-06-22T13:53:32;12.70;;;6.15;;
25780;SDS011;13626;48.128;11.628;2023-06-22T13:56:00;12.85;;;6.28;;
25780;SDS011;13626;48.128;11.628;2023-06-22T13:58:27;13.15;;;6.55;;
25780;SDS011;13626;48.128;11.628;2023-06-22T14:00:54;13.70;;;6.25;;
25780;SDS011;13626;48.128;11.628;2023-06-22T14:03:22;17.42;;;6.38;;
25780;SDS011;13626;48.128;11.628;2023-06-22T14:05:49;13.75;;;6.25;;
25780;SDS011;13626;48.128;11.628;2023-06-22T14:08:20;19.30;;;6.65;;
25780;SDS011;13626;48.128;11.628;2023-06-22T14:11:06;16.52;;;6.20;;
25780;SDS011;13626;48.128;11.628;2023-06-22T14:13:33;9.27;;;5.93;;
25780;SDS011;13626;48.128;11.628;2023-06-22T14:16:02;13.98;;;5.55;;
25780;SDS011;13626;48.128;11.628;2023-06-22T14:18:30;15.32;;;6.65;;
25780;SDS011;13626;48.128;11.628;2023-06-22T14:20:57;14.35;;;6.45;;
25780;SDS011;13626;48.128;11.628;2023-06-22T14:23:25;18.50;;;7.05;;
25780;SDS011;13626;48.128;11.628;2023-06-22T14:25:52;14.73;;;6.70;;
25780;SDS011;13626;48.128;11.628;2023-06-22T14:28:19;12.50;;;6.43;;
25780;SDS011;13626;48.128;11.628;2023-06-22T14:30:46;14.27;;;6.28;;
25780;SDS011;13626;48.128;11.628;2023-06-22T14:33:14;15.40;;;6.88;;
25780;SDS011;13626;48.128;11.628;2023-06-22T14:35:42;14.63;;;5.85;;
25780;SDS011;13626;48.128;11.628;2023-06-22T14:38:09;11.25;;;6.10;;
25780;SDS011;13626;48.128;11.628;2023-06-22T14:40:36;14.05;;;6.07;;
25780;SDS011;13626;48.128;11.628;2023-06-22T14:43:23;12.73;;;5.97;;